Time;durP1;ratioP1;P1;durP2;ratioP2;P2;SDS_P1;SDS_P2;PMS_P1;PMS_P2;Temp;Humidity;BMP_temperature;BMP_pressure;BME280_temperature;BME280_humidity;BME280_pressure;Samples;Min_cycle;Max_cycle;Signal;HPM_P1;HPM_P2
2021/12/14 00:00:30;;;;;;;5.20;3.47;;;;;;;5.00;58.98;102163.53;2097438;28;20216;-68
2021/12/14 00:01:39;;;;;;;4.57;3.63;;;;;;;5.00;59.31;102162.72;2094900;28;21041;-68
2021/12/14 00:02:41;;;;;;;4.95;3.90;;;;;;;4.95;58.76;102160.28;2090267;28;20184;-68
2021/12/14 00:03:45;;;;;;;4.70;3.53;;;;;;;4.39;59.30;102072.00;2090043;28;20180;-68
2021/12/14 00:04:46;;;;;;;5.28;4.13;;;;;;;4.94;58.95;102176.03;2090051;28;20226;-68
2021/12/14 00:05:47;;;;;;;5.53;4.37;;;;;;;4.89;58.71;102156.25;2089629;28;20180;-68
2021/12/14 00:06:50;;;;;;;5.40;4.20;;;;;;;4.90;58.77;102166.13;2089808;28;20200;-68
2021/12/14 00:07:51;;;;;;;5.28;4.10;;;;;;;4.92;59.37;102166.53;2089859;28;20202;-68
2021/12/14 00:08:57;;;;;;;5.43;4.18;;;;;;;4.84;59.15;102154.59;2090189;28;20172;-68
2021/12/14 00:10:12;;;;;;;5.38;4.25;;;;;;;4.90;59.21;102163.38;2089938;28;20164;-68
2021/12/14 00:11:30;;;;;;;5.63;4.32;;;;;;;4.91;59.28;102165.72;2090097;28;20158;-68
2021/12/14 00:12:53;;;;;;;6.45;4.25;;;;;;;4.94;59.43;102169.69;2090096;28;20152;-68
2021/12/14 00:14:09;;;;;;;5.65;4.22;;;;;;;4.80;59.29;102156.50;2089917;28;20197;-68
2021/12/14 00:15:14;;;;;;;6.25;4.40;;;;;;;4.90;59.17;102166.91;2089337;28;20195;-68
2021/12/14 00:16:15;;;;;;;6.05;4.90;;;;;;;4.91;58.99;102168.47;2089626;28;20933;-68
2021/12/14 00:17:28;;;;;;;5.72;4.78;;;;;;;4.91;59.24;102174.00;2089946;28;20173;-68
2021/12/14 00:18:29;;;;;;;5.97;4.50;;;;;;;4.93;59.38;102179.94;2097653;28;20216;-68
2021/12/14 00:19:30;;;;;;;6.00;4.37;;;;;;;4.99;58.90;102180.41;2097297;28;20165;-68
2021/12/14 00:20:39;;;;;;;5.53;4.30;;;;;;;4.99;59.41;102178.47;2089829;28;20172;-68
2021/12/14 00:21:43;;;;;;;5.63;4.50;;;;;;;5.01;59.17;102172.59;2089972;28;20710;-68
2021/12/14 00:24:14;;;;;;;6.22;4.60;;;;;;;5.01;60.08;102178.09;2089908;28;20193;-68
2021/12/14 00:25:15;;;;;;;5.70;4.70;;;;;;;5.02;59.76;102177.72;2089524;28;20598;-68
2021/12/14 00:26:17;;;;;;;8.20;4.90;;;;;;;5.07;59.43;102182.91;2089566;28;20212;-68
2021/12/14 00:27:18;;;;;;;5.95;4.63;;;;;;;4.79;58.96;102130.13;2089925;28;20175;-68
2021/12/14 00:28:32;;;;;;;6.20;4.68;;;;;;;5.11;58.75;102181.03;2090089;28;20189;-68
2021/12/14 00:29:36;;;;;;;7.07;4.95;;;;;;;5.14;58.97;102187.75;2089686;28;20653;-68
2021/12/14 00:30:39;;;;;;;7.97;4.55;;;;;;;5.09;58.74;102185.31;2089682;28;20183;-68
2021/12/14 00:31:40;;;;;;;7.07;5.20;;;;;;;5.12;59.06;102179.09;2089699;28;20290;-68
2021/12/14 00:32:41;;;;;;;6.17;4.77;;;;;;;4.77;58.77;102120.63;2089987;28;20172;-68
2021/12/14 00:33:43;;;;;;;7.73;5.80;;;;;;;5.12;58.90;102182.63;2089838;28;20176;-68
2021/12/14 00:34:44;;;;;;;7.68;5.18;;;;;;;5.07;58.75;102171.13;2089752;28;20265;-68
2021/12/14 00:35:46;;;;;;;6.07;4.75;;;;;;;5.09;59.04;102180.63;2088291;28;20191;-68
2021/12/14 00:36:47;;;;;;;6.10;4.88;;;;;;;5.07;58.73;102182.91;2089561;28;20542;-68
2021/12/14 00:37:51;;;;;;;7.57;5.33;;;;;;;5.06;59.13;102186.06;2089728;28;20283;-68
2021/12/14 00:38:56;;;;;;;6.63;4.50;;;;;;;5.05;59.57;102189.97;2089638;28;20179;-68
2021/12/14 00:39:59;;;;;;;6.90;4.70;;;;;;;5.07;59.21;102187.66;2089706;28;20584;-68
2021/12/14 00:41:06;;;;;;;6.55;4.90;;;;;;;5.05;59.31;102190.78;2089663;28;20180;-68
2021/12/14 00:42:07;;;;;;;7.75;5.28;;;;;;;4.99;59.77;102185.94;2089827;28;20678;-68
2021/12/14 00:43:09;;;;;;;6.05;4.57;;;;;;;4.93;59.59;102177.19;2089876;28;20191;-68
2021/12/14 00:44:10;;;;;;;7.03;5.32;;;;;;;5.06;59.35;102188.81;2089628;28;20620;-68
2021/12/14 00:45:11;;;;;;;6.00;4.22;;;;;;;5.04;58.68;102182.88;2088052;28;20720;-68
2021/12/14 00:46:13;;;;;;;7.70;5.00;;;;;;;4.99;59.32;102208.78;2088539;28;20196;-68
2021/12/14 00:47:14;;;;;;;6.93;4.80;;;;;;;5.04;59.44;102196.63;2089672;28;20470;-68
2021/12/14 00:48:16;;;;;;;8.68;5.28;;;;;;;4.98;59.26;102187.91;2089764;28;20531;-68
2021/12/14 00:49:17;;;;;;;7.90;5.20;;;;;;;5.02;59.08;102185.97;2089498;28;20202;-68
2021/12/14 00:50:20;;;;;;;7.30;5.03;;;;;;;4.99;59.18;102185.94;2089636;28;20181;-68
2021/12/14 00:51:27;;;;;;;8.32;5.55;;;;;;;4.97;59.50;102188.25;2089639;28;20523;-68
2021/12/14 00:52:27;;;;;;;7.38;5.38;;;;;;;4.91;59.34;102184.22;2089811;28;20165;-68
2021/12/14 00:53:29;;;;;;;8.50;5.43;;;;;;;4.92;59.26;102188.56;2089654;28;20229;-68
2021/12/14 00:54:30;;;;;;;6.57;4.90;;;;;;;4.89;59.34;102194.78;2089704;28;20171;-68
2021/12/14 00:55:39;;;;;;;6.60;5.25;;;;;;;4.16;59.27;102087.66;2089174;28;20178;-68
2021/12/14 00:56:40;;;;;;;7.70;5.40;;;;;;;4.91;59.70;102203.50;2089665;28;20203;-68
2021/12/14 00:57:41;;;;;;;7.45;5.63;;;;;;;4.95;59.61;102207.09;2097098;28;20174;-68
2021/12/14 00:58:42;;;;;;;7.37;5.37;;;;;;;4.94;59.67;102195.31;2089637;28;20263;-68
2021/12/14 00:59:43;;;;;;;7.47;5.55;;;;;;;4.34;59.43;102119.06;2089138;28;20174;-68
2021/12/14 01:01:07;;;;;;;7.87;5.70;;;;;;;4.98;59.63;102192.59;2089545;28;20218;-68
2021/12/14 01:02:12;;;;;;;7.82;5.43;;;;;;;4.97;59.58;102194.56;2089580;28;20152;-68
2021/12/14 01:03:13;;;;;;;7.07;5.55;;;;;;;4.99;59.58;102191.44;2089771;28;20643;-68
2021/12/14 01:04:19;;;;;;;7.50;5.83;;;;;;;4.91;59.59;102201.53;2089672;28;20184;-68
2021/12/14 01:05:26;;;;;;;8.20;5.28;;;;;;;4.84;60.05;102204.16;2088886;28;20251;-68
2021/12/14 01:06:30;;;;;;;7.93;5.68;;;;;;;4.88;59.50;102198.72;2089302;28;20269;-68
2021/12/14 01:07:31;;;;;;;7.55;5.88;;;;;;;4.12;59.59;102081.28;2089622;28;20734;-68
2021/12/14 01:08:36;;;;;;;6.30;5.03;;;;;;;4.94;59.52;102195.31;2089607;28;20573;-68
2021/12/14 01:09:46;;;;;;;8.10;5.28;;;;;;;4.43;59.83;102124.34;2089425;28;20194;-68
2021/12/14 01:10:51;;;;;;;7.78;5.82;;;;;;;4.86;59.34;102185.31;2089370;28;20630;-68
2021/12/14 01:11:53;;;;;;;6.78;5.28;;;;;;;4.92;59.93;102191.31;2089426;28;20173;-68
2021/12/14 01:13:00;;;;;;;9.40;6.03;;;;;;;4.22;59.33;102091.69;2089607;28;20178;-68
2021/12/14 01:14:10;;;;;;;7.22;5.45;;;;;;;4.78;59.89;102183.59;2089431;28;20161;-68
2021/12/14 01:15:31;;;;;;;8.27;5.30;;;;;;;4.89;59.53;102197.53;2088961;28;20211;-68
2021/12/14 01:16:50;;;;;;;8.27;5.53;;;;;;;4.91;59.89;102196.03;2089203;28;20161;-68
2021/12/14 01:19:20;;;;;;;7.10;5.70;;;;;;;4.67;59.82;102148.78;2089377;28;20614;-68
2021/12/14 01:20:30;;;;;;;7.22;5.50;;;;;;;4.89;59.67;102201.09;2089279;28;20189;-68
2021/12/14 01:22:45;;;;;;;7.43;5.80;;;;;;;4.88;60.48;102198.72;2089598;28;20657;-68
2021/12/14 01:23:46;;;;;;;8.30;6.47;;;;;;;4.73;59.95;102180.34;2089439;28;20431;-68
2021/12/14 01:25:02;;;;;;;7.07;5.88;;;;;;;4.83;59.57;102202.56;2089373;28;20188;-68
2021/12/14 01:26:12;;;;;;;7.55;5.68;;;;;;;4.80;59.44;102208.81;2088857;28;20198;-68
2021/12/14 01:27:21;;;;;;;8.63;6.18;;;;;;;4.82;59.47;102202.94;2089586;28;20229;-68
2021/12/14 01:28:26;;;;;;;8.43;5.90;;;;;;;4.82;59.97;102208.44;2089563;28;20406;-68
2021/12/14 01:29:28;;;;;;;8.02;6.18;;;;;;;4.12;60.06;102122.53;2089212;28;20160;-68
2021/12/14 01:30:53;;;;;;;9.77;7.13;;;;;;;4.71;60.48;102216.50;2089223;28;20259;-68
2021/12/14 01:31:59;;;;;;;10.25;7.03;;;;;;;4.81;59.95;102207.63;2089405;28;20218;-68
2021/12/14 01:33:04;;;;;;;7.57;6.05;;;;;;;4.86;60.42;102206.56;2089553;28;20176;-68
2021/12/14 01:34:18;;;;;;;9.02;5.90;;;;;;;4.75;59.84;102173.31;2089233;28;20176;-68
2021/12/14 01:35:25;;;;;;;7.22;6.00;;;;;;;4.93;59.86;102204.72;2088564;28;20249;-68
2021/12/14 01:36:42;;;;;;;9.07;5.57;;;;;;;4.98;59.27;102204.44;2089111;28;20239;-68
2021/12/14 01:37:59;;;;;;;7.90;6.32;;;;;;;5.00;59.49;102193.00;2089384;28;20547;-68
2021/12/14 01:40:29;;;;;;;6.93;5.53;;;;;;;5.03;58.90;102192.31;2089115;28;20172;-68
2021/12/14 01:41:30;;;;;;;7.75;5.72;;;;;;;5.11;59.22;102197.56;2088632;28;20272;-68
2021/12/14 01:42:38;;;;;;;7.53;5.80;;;;;;;5.11;59.39;102185.75;2088734;28;20184;-68
2021/12/14 01:43:56;;;;;;;8.07;6.25;;;;;;;5.16;59.11;102185.44;2089323;28;20196;-68
2021/12/14 01:45:09;;;;;;;7.18;5.68;;;;;;;5.16;58.58;102185.44;2088872;28;20156;-68
2021/12/14 01:46:15;;;;;;;8.32;5.85;;;;;;;5.07;58.91;102193.94;2088878;28;20252;-68
2021/12/14 01:47:20;;;;;;;10.48;6.20;;;;;;;5.10;59.02;102195.16;2089261;28;20165;-68
2021/12/14 01:48:23;;;;;;;7.78;5.72;;;;;;;5.05;58.56;102195.47;2089161;28;20622;-68
2021/12/14 01:49:25;;;;;;;7.60;5.60;;;;;;;5.04;59.12;102193.88;2088971;28;20231;-68
2021/12/14 01:50:30;;;;;;;8.25;5.95;;;;;;;4.99;58.79;102180.41;2089067;28;20259;-68
2021/12/14 01:51:31;;;;;;;8.23;6.20;;;;;;;5.00;58.62;102188.31;2089313;28;20168;-68
2021/12/14 01:52:34;;;;;;;8.32;6.53;;;;;;;4.99;58.20;102192.25;2089253;28;20169;-68
2021/12/14 01:53:36;;;;;;;9.38;6.50;;;;;;;4.88;59.09;102193.22;2089273;28;20219;-68
2021/12/14 01:54:43;;;;;;;7.95;6.18;;;;;;;4.87;59.63;102194.38;2089076;28;20177;-68
2021/12/14 01:55:50;;;;;;;7.90;5.93;;;;;;;4.89;59.09;102198.34;2087752;28;20235;-68
2021/12/14 01:56:52;;;;;;;8.85;6.18;;;;;;;4.73;59.46;102172.88;2089487;28;20617;-68
2021/12/14 01:57:58;;;;;;;7.50;5.97;;;;;;;4.81;59.26;102165.56;2088791;28;20170;-68
2021/12/14 01:59:06;;;;;;;9.80;6.43;;;;;;;4.90;58.97;102194.44;2089055;28;20684;-68
2021/12/14 02:00:10;;;;;;;8.32;6.28;;;;;;;4.96;59.49;102206.72;2088902;28;20157;-68
2021/12/14 02:01:28;;;;;;;9.35;6.78;;;;;;;4.99;59.46;102196.94;2089215;28;20197;-68
2021/12/14 02:02:40;;;;;;;9.05;6.40;;;;;;;4.97;59.04;102199.28;2089168;28;20188;-68
2021/12/14 02:04:00;;;;;;;8.20;5.88;;;;;;;4.96;59.51;102205.94;2089094;28;20158;-68
2021/12/14 02:05:07;;;;;;;10.95;6.78;;;;;;;5.00;59.08;102201.28;2088736;28;20186;-68
2021/12/14 02:06:14;;;;;;;8.63;6.57;;;;;;;4.99;58.99;102203.25;2088717;28;20172;-68
2021/12/14 02:07:17;;;;;;;9.63;6.93;;;;;;;5.00;58.82;102206.78;2089290;28;20169;-68
2021/12/14 02:08:22;;;;;;;9.73;7.13;;;;;;;5.00;58.89;102202.09;2089223;28;20175;-68
2021/12/14 02:09:26;;;;;;;8.88;6.60;;;;;;;5.01;59.01;102203.69;2088808;28;20166;-68
2021/12/14 02:10:31;;;;;;;9.00;7.07;;;;;;;4.18;59.20;102077.06;2088909;28;20667;-68
2021/12/14 02:11:38;;;;;;;9.73;7.60;;;;;;;5.01;58.71;102206.44;2089121;28;20548;-68
2021/12/14 02:12:43;;;;;;;9.15;6.95;;;;;;;5.01;58.87;102216.66;2089267;28;20174;-68
2021/12/14 02:13:47;;;;;;;9.77;7.53;;;;;;;4.98;58.49;102209.13;2088954;28;20183;-68
2021/12/14 02:14:48;;;;;;;10.57;7.45;;;;;;;4.36;58.81;102103.00;2088971;28;20177;-68
2021/12/14 02:15:49;;;;;;;10.63;7.73;;;;;;;4.19;59.11;102083.38;2088850;28;20186;-68
2021/12/14 02:16:52;;;;;;;10.07;7.43;;;;;;;4.97;59.16;102207.53;2088712;28;20477;-68
2021/12/14 02:17:55;;;;;;;9.75;7.28;;;;;;;4.96;58.98;102209.47;2088983;28;20176;-68
2021/12/14 02:19:06;;;;;;;10.88;7.13;;;;;;;4.23;58.95;102092.47;2088853;28;20618;-68
2021/12/14 02:20:10;;;;;;;10.32;7.38;;;;;;;4.98;59.17;102209.94;2088789;28;20652;-68
2021/12/14 02:21:12;;;;;;;11.43;7.70;;;;;;;4.50;59.09;102124.47;2089186;28;20179;-68
2021/12/14 02:22:14;;;;;;;9.70;7.47;;;;;;;4.75;59.38;102167.81;2088958;28;20172;-68
2021/12/14 02:23:15;;;;;;;10.23;7.43;;;;;;;4.99;58.94;102208.78;2088961;28;20271;-68
2021/12/14 02:24:19;;;;;;;11.17;7.87;;;;;;;5.05;58.64;102200.97;2089169;28;20172;-68
2021/12/14 02:25:20;;;;;;;12.32;8.07;;;;;;;5.04;58.68;102202.94;2088323;28;20636;-68
2021/12/14 02:26:27;;;;;;;12.85;8.00;;;;;;;4.99;58.52;102208.78;2088653;28;20207;-68
2021/12/14 02:27:52;;;;;;;13.30;7.82;;;;;;;5.04;58.67;102202.94;2089086;28;20237;-68
2021/12/14 02:28:58;;;;;;;9.88;7.35;;;;;;;4.97;58.98;102208.31;2089166;28;20199;-68
2021/12/14 02:30:07;;;;;;;12.38;8.05;;;;;;;4.97;59.13;102213.06;2088902;28;20199;-68
2021/12/14 02:31:12;;;;;;;11.45;8.45;;;;;;;4.93;58.58;102213.00;2089075;28;20176;-68
2021/12/14 02:32:16;;;;;;;11.18;7.45;;;;;;;4.97;58.81;102204.78;2088920;28;20175;-68
2021/12/14 02:33:22;;;;;;;11.05;7.82;;;;;;;4.98;59.11;102212.69;2089107;28;20192;-68
2021/12/14 02:34:24;;;;;;;13.20;8.13;;;;;;;4.97;59.22;102213.81;2089097;28;20160;-68
2021/12/14 02:35:28;;;;;;;10.93;7.75;;;;;;;4.88;58.97;102204.22;2088179;28;20284;-68
2021/12/14 02:36:32;;;;;;;11.52;8.20;;;;;;;4.88;59.39;102210.53;2088668;28;20180;-68
2021/12/14 02:37:58;;;;;;;11.55;8.23;;;;;;;4.89;59.32;102220.38;2088880;28;20671;-68
2021/12/14 02:39:08;;;;;;;11.70;8.20;;;;;;;4.91;59.56;102212.53;2088718;28;20168;-68
2021/12/14 02:40:20;;;;;;;11.20;7.97;;;;;;;4.85;59.21;102200.25;2088684;28;20590;-68
2021/12/14 02:41:20;;;;;;;10.52;8.07;;;;;;;4.98;59.63;102211.88;2088968;28;20235;-68
2021/12/14 02:42:25;;;;;;;11.87;8.20;;;;;;;4.99;59.70;102216.22;2089005;28;20170;-68
2021/12/14 02:43:28;;;;;;;12.05;8.43;;;;;;;4.99;58.91;102219.78;2088889;28;20180;-68
2021/12/14 02:44:29;;;;;;;11.38;8.27;;;;;;;4.58;59.43;102157.28;2088876;28;20210;-68
2021/12/14 02:45:29;;;;;;;11.53;7.97;;;;;;;5.01;59.08;102217.44;2088365;28;20171;-68
2021/12/14 02:46:41;;;;;;;11.27;7.67;;;;;;;5.01;58.84;102231.22;2088432;28;20488;-68
2021/12/14 02:47:42;;;;;;;10.13;7.63;;;;;;;5.00;59.00;102212.31;2088732;28;20168;-68
2021/12/14 02:48:47;;;;;;;10.43;7.75;;;;;;;4.96;58.68;102220.50;2089113;28;20286;-68
2021/12/14 02:49:49;;;;;;;11.45;8.50;;;;;;;4.98;58.86;102215.44;2088725;28;20171;-68
2021/12/14 02:50:50;;;;;;;11.95;8.30;;;;;;;5.01;58.96;102211.16;2088537;28;20231;-68
2021/12/14 02:51:55;;;;;;;14.33;8.73;;;;;;;4.97;58.93;102210.28;2088770;28;20176;-68
2021/12/14 02:52:55;;;;;;;11.18;8.07;;;;;;;3.95;59.36;102054.25;2089209;28;20168;-68
2021/12/14 02:54:03;;;;;;;11.80;8.53;;;;;;;4.59;59.14;102163.56;2088845;28;20709;-68
2021/12/14 02:55:10;;;;;;;11.70;8.10;;;;;;;4.93;59.41;102213.00;2088520;28;20164;-68
2021/12/14 02:56:14;;;;;;;11.90;8.00;;;;;;;4.33;59.06;102111.97;2088491;28;20177;-68
2021/12/14 02:57:22;;;;;;;13.43;8.23;;;;;;;4.95;59.86;102213.41;2088940;28;21044;-68
2021/12/14 02:58:22;;;;;;;11.75;8.35;;;;;;;4.96;59.28;102209.47;2088986;28;20197;-68
2021/12/14 02:59:27;;;;;;;11.80;8.63;;;;;;;4.95;59.61;102213.41;2088586;28;20173;-68
2021/12/14 03:00:50;;;;;;;12.90;8.65;;;;;;;4.91;59.51;102192.50;2088560;28;20662;-68
2021/12/14 03:01:53;;;;;;;12.35;8.65;;;;;;;4.94;58.96;102208.25;2088757;28;20168;-68
2021/12/14 03:02:54;;;;;;;12.20;8.18;;;;;;;4.91;59.50;102212.53;2088985;28;20174;-68
2021/12/14 03:04:00;;;;;;;12.77;8.73;;;;;;;4.25;59.50;102095.69;2088869;28;20178;-68
2021/12/14 03:05:09;;;;;;;12.88;8.57;;;;;;;4.99;59.06;102205.19;2088502;28;20174;-68
2021/12/14 03:06:11;;;;;;;12.80;8.60;;;;;;;5.02;59.40;102202.50;2088300;28;20217;-68
2021/12/14 03:07:14;;;;;;;13.77;8.98;;;;;;;4.95;59.05;102187.81;2088957;28;20177;-68
2021/12/14 03:08:21;;;;;;;13.27;8.75;;;;;;;4.99;59.32;102208.78;2088902;28;20197;-68
2021/12/14 03:09:41;;;;;;;12.20;8.43;;;;;;;4.99;59.33;102207.97;2090277;28;20196;-68
2021/12/14 03:10:56;;;;;;;13.25;8.30;;;;;;;4.88;59.42;102202.28;2090393;28;20191;-68
2021/12/14 03:11:59;;;;;;;12.00;8.45;;;;;;;4.95;59.83;102207.91;2090492;28;20752;-68
2021/12/14 03:13:05;;;;;;;11.98;8.77;;;;;;;4.96;59.87;102205.94;2090509;28;20207;-68
2021/12/14 03:14:05;;;;;;;12.73;8.95;;;;;;;4.96;59.50;102219.72;2090385;28;20176;-68
2021/12/14 03:15:23;;;;;;;11.70;8.50;;;;;;;4.95;59.32;102191.38;2090038;28;20195;-68
2021/12/14 03:16:27;;;;;;;11.35;8.52;;;;;;;5.00;59.26;102195.78;2090234;28;20162;-68
2021/12/14 03:17:28;;;;;;;11.55;8.23;;;;;;;4.96;59.46;102195.72;2090408;28;20571;-68
2021/12/14 03:18:33;;;;;;;11.97;8.50;;;;;;;4.96;59.93;102201.22;2090510;28;20199;-68
2021/12/14 03:19:34;;;;;;;12.13;8.55;;;;;;;4.10;59.81;102047.84;2090414;28;20622;-68
2021/12/14 03:20:48;;;;;;;13.33;9.07;;;;;;;5.00;59.75;102195.78;2089961;28;20607;-68
2021/12/14 03:21:49;;;;;;;12.18;8.55;;;;;;;4.98;59.54;102204.44;2090274;28;20617;-68
2021/12/14 03:23:19;;;;;;;12.98;8.95;;;;;;;5.00;60.13;102193.00;2090446;28;20619;-68
2021/12/14 03:24:21;;;;;;;10.45;7.93;;;;;;;4.36;59.63;102097.50;2089811;28;20176;-68
2021/12/14 03:25:22;;;;;;;12.35;8.73;;;;;;;4.98;59.90;102190.66;2089201;28;20249;-68
2021/12/14 03:26:26;;;;;;;12.30;8.70;;;;;;;4.98;59.65;102190.66;2090050;28;20202;-68
2021/12/14 03:27:27;;;;;;;11.65;8.25;;;;;;;4.94;60.01;102198.06;2090237;28;20174;-68
2021/12/14 03:28:30;;;;;;;11.43;7.70;;;;;;;4.83;60.30;102185.25;2090505;28;20204;-68
2021/12/14 03:29:31;;;;;;;10.30;7.72;;;;;;;4.91;60.25;102198.78;2090127;28;20246;-68
2021/12/14 03:30:47;;;;;;;10.77;7.80;;;;;;;4.92;59.84;102197.59;2090023;28;20256;-68
2021/12/14 03:31:50;;;;;;;11.30;7.90;;;;;;;4.85;60.22;102191.19;2090287;28;20180;-68
2021/12/14 03:32:55;;;;;;;10.80;8.23;;;;;;;4.89;59.51;102197.53;2090508;28;20703;-68
2021/12/14 03:34:03;;;;;;;11.18;7.78;;;;;;;4.88;60.04;102206.97;2090344;28;20176;-68
2021/12/14 03:35:04;;;;;;;10.45;7.80;;;;;;;4.85;59.95;102200.25;2089717;28;20235;-68
2021/12/14 03:36:15;;;;;;;10.25;7.97;;;;;;;4.81;60.33;102199.38;2089745;28;20176;-68
2021/12/14 03:37:21;;;;;;;11.60;8.23;;;;;;;4.89;60.24;102197.53;2090450;28;20195;-68
2021/12/14 03:38:33;;;;;;;10.90;7.60;;;;;;;4.89;59.35;102197.53;2090222;28;20164;-68
2021/12/14 03:39:43;;;;;;;9.93;7.25;;;;;;;4.86;59.47;102199.06;2090183;28;20173;-68
2021/12/14 03:40:52;;;;;;;11.40;8.00;;;;;;;4.87;59.85;102200.69;2090128;28;20184;-68
2021/12/14 03:42:03;;;;;;;11.18;8.07;;;;;;;4.91;59.60;102200.75;2090141;28;20157;-68
2021/12/14 03:43:04;;;;;;;9.10;7.32;;;;;;;4.39;59.79;102134.50;2090382;28;20173;-68
2021/12/14 03:44:14;;;;;;;10.90;7.23;;;;;;;4.94;59.38;102194.50;2090127;28;20176;-68
2021/12/14 03:45:19;;;;;;;9.05;7.40;;;;;;;4.99;59.52;102196.94;2089911;28;20565;-68
2021/12/14 03:46:19;;;;;;;9.52;7.35;;;;;;;5.00;59.53;102185.56;2089866;28;20303;-68
2021/12/14 03:47:43;;;;;;;10.83;7.60;;;;;;;5.01;59.38;102194.63;2090061;28;20174;-68
2021/12/14 03:48:44;;;;;;;8.73;7.25;;;;;;;4.99;59.35;102197.75;2090222;28;20161;-68
2021/12/14 03:49:55;;;;;;;10.23;7.10;;;;;;;5.00;59.40;102190.25;2089999;28;20177;-68
2021/12/14 03:50:56;;;;;;;9.82;7.35;;;;;;;4.98;59.51;102193.41;2089755;28;20165;-68
2021/12/14 03:51:57;;;;;;;11.10;7.80;;;;;;;5.01;59.10;102195.41;2090249;28;20223;-68
2021/12/14 03:52:58;;;;;;;9.67;7.57;;;;;;;4.82;59.11;102187.22;2097809;28;20661;-68
2021/12/14 03:53:59;;;;;;;10.00;7.57;;;;;;;4.78;58.98;102189.09;2097820;28;20186;-68
2021/12/14 03:55:05;;;;;;;10.17;7.53;;;;;;;5.12;58.72;102199.13;2089784;28;20168;-68
2021/12/14 03:56:07;;;;;;;9.43;7.22;;;;;;;5.15;59.22;102198.41;2089701;28;20545;-68
2021/12/14 03:57:08;;;;;;;10.27;7.68;;;;;;;5.15;59.24;102206.69;2090249;28;20173;-68
2021/12/14 03:58:17;;;;;;;9.73;7.85;;;;;;;5.09;58.90;102201.84;2090225;28;20177;-68
2021/12/14 03:59:19;;;;;;;11.10;8.43;;;;;;;5.06;58.70;102203.38;2089828;28;20162;-68
2021/12/14 04:00:33;;;;;;;12.90;8.25;;;;;;;5.07;58.70;102209.69;2089978;28;20188;-68
2021/12/14 04:01:39;;;;;;;15.85;8.80;;;;;;;5.07;59.01;102215.19;2090192;28;20202;-68
2021/12/14 04:02:40;;;;;;;12.70;8.00;;;;;;;5.09;58.94;102199.91;2090122;28;20294;-68
2021/12/14 04:03:42;;;;;;;9.83;7.67;;;;;;;5.08;59.01;102198.31;2090008;28;20176;-68
2021/12/14 04:05:04;;;;;;;9.80;7.40;;;;;;;5.12;58.85;102206.63;2090129;28;20283;-68
2021/12/14 04:06:06;;;;;;;9.50;7.38;;;;;;;5.15;59.01;102198.41;2081377;28;20196;-68
2021/12/14 04:07:10;;;;;;;10.55;7.38;;;;;;;5.20;58.33;102205.56;2082042;28;20177;-68
2021/12/14 04:08:14;;;;;;;8.93;7.53;;;;;;;5.23;58.49;102207.59;2081773;28;20602;-68
2021/12/14 04:09:17;;;;;;;10.18;7.78;;;;;;;5.25;58.48;102202.50;2081638;28;20182;-68
2021/12/14 04:10:29;;;;;;;10.55;7.95;;;;;;;5.25;58.23;102214.34;2081430;28;20175;-68
2021/12/14 04:11:32;;;;;;;9.73;8.00;;;;;;;4.62;57.96;102102.28;2081754;28;20149;-68
2021/12/14 04:12:32;;;;;;;10.57;8.15;;;;;;;5.31;57.89;102212.84;2081706;28;20174;-68
2021/12/14 04:13:37;;;;;;;9.77;8.00;;;;;;;5.35;57.51;102210.16;2084285;28;20181;-68
2021/12/14 04:14:41;;;;;;;10.68;7.78;;;;;;;5.34;57.91;102208.56;2090236;28;20171;-68
2021/12/14 04:15:41;;;;;;;9.85;7.78;;;;;;;5.32;58.13;102208.94;2089467;28;20671;-68
2021/12/14 04:16:46;;;;;;;10.10;7.87;;;;;;;5.34;58.47;102209.38;2089698;28;20527;-68
2021/12/14 04:17:48;;;;;;;9.85;7.88;;;;;;;5.35;58.03;102205.44;2097476;28;20178;-68
2021/12/14 04:18:49;;;;;;;9.68;8.07;;;;;;;5.04;57.73;102169.91;2097716;28;20207;-68
2021/12/14 04:19:49;;;;;;;9.70;7.93;;;;;;;5.35;57.66;102196.38;2089347;28;20210;-68
2021/12/14 04:20:52;;;;;;;12.83;8.37;;;;;;;5.38;58.00;102206.69;2089343;28;20185;-68
2021/12/14 04:21:59;;;;;;;11.18;7.68;;;;;;;5.00;58.59;102148.94;2089907;28;20205;-68
2021/12/14 04:23:07;;;;;;;9.68;7.82;;;;;;;5.38;57.49;102201.94;2089930;28;20161;-68
2021/12/14 04:24:09;;;;;;;11.07;8.25;;;;;;;5.39;57.45;102209.06;2089781;28;20157;-68
2021/12/14 04:25:10;;;;;;;10.35;8.05;;;;;;;5.37;57.17;102202.34;2089531;28;20177;-68
2021/12/14 04:26:12;;;;;;;9.97;7.30;;;;;;;5.37;57.18;102222.41;2088679;28;20173;-68
2021/12/14 04:27:18;;;;;;;10.85;8.25;;;;;;;4.68;57.53;102101.63;2089420;28;20179;-68
2021/12/14 04:28:23;;;;;;;10.40;8.07;;;;;;;5.37;57.63;102207.84;2090139;28;20174;-68
2021/12/14 04:29:23;;;;;;;10.80;8.13;;;;;;;4.72;57.39;102126.44;2089617;28;20264;-68
2021/12/14 04:30:27;;;;;;;10.30;7.83;;;;;;;5.25;57.89;102213.53;2089740;28;20177;-68
2021/12/14 04:31:33;;;;;;;11.13;8.68;;;;;;;4.95;57.80;102163.03;2089737;28;20223;-68
2021/12/14 04:32:34;;;;;;;10.18;8.07;;;;;;;5.26;58.00;102215.16;2089898;28;20168;-68
2021/12/14 04:33:41;;;;;;;10.00;7.80;;;;;;;5.24;57.33;102209.19;2089890;28;20706;-68
2021/12/14 04:34:42;;;;;;;8.90;7.75;;;;;;;5.25;57.71;102219.03;2089784;28;20576;-68
2021/12/14 04:35:45;;;;;;;11.17;8.23;;;;;;;4.74;57.80;102127.69;2089210;28;20229;-68
2021/12/14 04:36:51;;;;;;;10.70;7.78;;;;;;;5.30;57.94;102216.78;2089581;28;20172;-68
2021/12/14 04:37:57;;;;;;;10.20;7.93;;;;;;;5.25;57.94;102219.03;2089894;28;20165;-68
2021/12/14 04:39:28;;;;;;;9.68;7.65;;;;;;;5.30;57.22;102227.81;2089324;28;20174;-68
2021/12/14 04:52:16;;;;;;;10.63;8.13;;;;;;;5.30;57.98;102227.00;2089813;28;20166;-68
2021/12/14 04:53:35;;;;;;;10.20;7.68;;;;;;;5.26;57.46;102229.69;2089679;28;20183;-68
2021/12/14 04:54:45;;;;;;;14.05;8.25;;;;;;;5.27;58.38;102234.03;2089556;28;20179;-68
2021/12/14 04:55:46;;;;;;;11.23;8.15;;;;;;;5.26;57.97;102237.19;2089472;28;20607;-68
2021/12/14 04:56:48;;;;;;;9.98;8.13;;;;;;;5.30;58.07;102230.56;2089380;28;20647;-68
2021/12/14 04:57:49;;;;;;;10.88;8.40;;;;;;;5.30;57.97;102230.56;2089539;28;20189;-68
2021/12/14 04:59:03;;;;;;;11.40;8.30;;;;;;;5.32;57.89;102236.50;2089764;28;20183;-68
2021/12/14 05:00:34;;;;;;;11.30;8.05;;;;;;;5.32;57.45;102236.50;2089293;28;20167;-68
2021/12/14 05:01:40;;;;;;;12.10;8.43;;;;;;;5.32;58.14;102225.47;2089628;28;20820;-68
2021/12/14 05:02:43;;;;;;;9.65;7.57;;;;;;;5.21;58.03;102205.22;2089785;28;20156;-68
2021/12/14 05:03:51;;;;;;;10.68;7.93;;;;;;;5.03;57.36;102184.03;2089490;28;20204;-68
2021/12/14 05:04:54;;;;;;;10.20;7.72;;;;;;;5.45;57.48;102239.84;2089314;28;20160;-68
2021/12/14 05:06:10;;;;;;;10.35;7.93;;;;;;;5.44;57.52;102243.78;2082158;28;20177;-65
2021/12/14 05:09:37;;;;;;;11.07;8.47;;;;;;;5.41;57.60;102252.78;2089417;28;20179;-67
2021/12/14 05:10:40;;;;;;;12.18;8.25;;;;;;;5.43;58.29;102242.97;2089274;28;20611;-68
2021/12/14 05:11:41;;;;;;;11.82;7.90;;;;;;;5.46;57.54;102256.03;2088988;28;20184;-67
2021/12/14 05:12:41;;;;;;;11.03;8.23;;;;;;;5.55;56.93;102248.31;2089721;28;20207;-68
2021/12/14 05:13:45;;;;;;;9.67;7.73;;;;;;;5.58;57.20;102249.53;2089257;28;20643;-67
2021/12/14 05:14:47;;;;;;;9.70;7.47;;;;;;;5.59;56.69;102259.38;2089378;28;20194;-68
2021/12/14 05:15:48;;;;;;;9.40;7.78;;;;;;;5.61;57.37;102248.78;2088633;28;20209;-68
2021/12/14 05:16:53;;;;;;;11.10;7.17;;;;;;;5.60;57.71;102244.44;2088747;28;20197;-68
2021/12/14 05:17:53;;;;;;;9.48;7.60;;;;;;;5.67;56.71;102259.13;2088733;28;20282;-68
2021/12/14 05:19:01;;;;;;;11.53;7.87;;;;;;;5.64;56.89;102253.56;2089479;28;20635;-66
2021/12/14 05:20:05;;;;;;;10.43;8.05;;;;;;;5.63;57.33;102250.00;2089241;28;20167;-66
2021/12/14 05:21:06;;;;;;;12.83;8.87;;;;;;;5.64;57.93;102251.63;2089256;28;20206;-67
2021/12/14 05:22:10;;;;;;;11.00;7.83;;;;;;;5.68;57.11;102252.44;2088900;28;20430;-67
2021/12/14 05:23:18;;;;;;;16.48;8.75;;;;;;;5.73;57.61;102252.13;2089535;28;20263;-67
2021/12/14 05:24:25;;;;;;;11.88;8.45;;;;;;;5.72;57.24;102250.53;2089128;28;20172;-67
2021/12/14 05:25:27;;;;;;;8.32;6.60;;;;;;;5.73;56.62;102246.59;2088866;28;20166;-68
2021/12/14 05:26:28;;;;;;;9.23;7.33;;;;;;;5.70;56.74;102257.59;2088200;28;20217;-66
2021/12/14 05:27:39;;;;;;;9.03;7.00;;;;;;;5.68;57.14;102255.19;2087981;28;20458;-67